Terminal Aerodrome Forecast
Issued by NWS

Home | Current Version | Previous Version | Text Only | Print | Product List | Glossary On
Versions: 1 2 3 4 5 6 7 8 9 10 11 12 13 14 15 16 17 18 19
859
FTAK31 PAJN 040535
TAFAKT
TAF
PAKT 040535Z 0406/0506 VRB06KT P6SM VCSH SCT015 SCT025 BKN040
      TEMPO 0406/0410 4SM -SHSN BKN015 OVC025
     FM041000 12010KT P6SM VCSH OVC035
     FM041800 12010KT 3SM -SHSN BKN010 OVC025
     FM050300 32006KT P6SM SCT030
      AMD LTD TO CLD VIS AND WIND 0406/0415=

USA.gov is the U.S. government's official web portal to all federal, state and local government web resources and services.